sensor_id;sensor_type;location;lat;lon;timestamp;P1;durP1;ratioP1;P2;durP2;ratioP2
68188;SDS011;66299;47.514;19.218;2023-05-07T00:01:47;32.70;;;19.20;;
68188;SDS011;66299;47.514;19.218;2023-05-07T00:04:24;29.77;;;19.50;;
68188;SDS011;66299;47.514;19.218;2023-05-07T00:07:00;30.42;;;19.35;;
68188;SDS011;66299;47.514;19.218;2023-05-07T00:09:33;27.67;;;19.08;;
68188;SDS011;66299;47.514;19.218;2023-05-07T00:12:03;27.67;;;19.00;;
68188;SDS011;66299;47.514;19.218;2023-05-07T00:14:35;27.40;;;18.55;;
68188;SDS011;66299;47.514;19.218;2023-05-07T00:17:06;27.73;;;19.13;;
68188;SDS011;66299;47.514;19.218;2023-05-07T00:19:42;27.38;;;18.63;;
68188;SDS011;66299;47.514;19.218;2023-05-07T00:22:15;29.65;;;19.23;;
68188;SDS011;66299;47.514;19.218;2023-05-07T00:24:44;29.17;;;19.13;;
68188;SDS011;66299;47.514;19.218;2023-05-07T00:27:17;30.77;;;19.73;;
68188;SDS011;66299;47.514;19.218;2023-05-07T00:29:48;30.90;;;20.25;;
68188;SDS011;66299;47.514;19.218;2023-05-07T00:32:20;27.48;;;18.77;;
68188;SDS011;66299;47.514;19.218;2023-05-07T00:37:34;29.23;;;19.38;;
68188;SDS011;66299;47.514;19.218;2023-05-07T00:40:05;30.65;;;20.30;;
68188;SDS011;66299;47.514;19.218;2023-05-07T00:42:36;34.72;;;21.77;;
68188;SDS011;66299;47.514;19.218;2023-05-07T00:45:11;26.98;;;19.85;;
68188;SDS011;66299;47.514;19.218;2023-05-07T00:47:42;28.80;;;20.05;;
68188;SDS011;66299;47.514;19.218;2023-05-07T00:50:16;31.67;;;21.02;;
68188;SDS011;66299;47.514;19.218;2023-05-07T00:52:47;29.88;;;19.90;;
68188;SDS011;66299;47.514;19.218;2023-05-07T00:55:16;32.72;;;20.45;;
68188;SDS011;66299;47.514;19.218;2023-05-07T00:57:51;29.83;;;19.98;;
68188;SDS011;66299;47.514;19.218;2023-05-07T01:00:27;30.00;;;20.48;;
68188;SDS011;66299;47.514;19.218;2023-05-07T01:02:56;32.28;;;20.38;;
68188;SDS011;66299;47.514;19.218;2023-05-07T01:05:33;32.30;;;20.02;;
68188;SDS011;66299;47.514;19.218;2023-05-07T01:08:04;30.50;;;20.20;;
68188;SDS011;66299;47.514;19.218;2023-05-07T01:10:37;31.00;;;20.42;;
68188;SDS011;66299;47.514;19.218;2023-05-07T01:13:10;33.08;;;20.38;;
68188;SDS011;66299;47.514;19.218;2023-05-07T01:15:50;28.75;;;19.63;;
68188;SDS011;66299;47.514;19.218;2023-05-07T01:18:20;28.45;;;20.13;;
68188;SDS011;66299;47.514;19.218;2023-05-07T01:21:05;31.20;;;21.10;;
68188;SDS011;66299;47.514;19.218;2023-05-07T01:23:43;31.30;;;20.35;;
68188;SDS011;66299;47.514;19.218;2023-05-07T01:26:16;27.85;;;19.30;;
68188;SDS011;66299;47.514;19.218;2023-05-07T01:28:48;30.45;;;19.33;;
68188;SDS011;66299;47.514;19.218;2023-05-07T01:31:25;29.08;;;19.33;;
68188;SDS011;66299;47.514;19.218;2023-05-07T01:33:54;29.50;;;19.40;;
68188;SDS011;66299;47.514;19.218;2023-05-07T01:36:27;26.50;;;18.17;;
68188;SDS011;66299;47.514;19.218;2023-05-07T01:39:00;27.60;;;19.27;;
68188;SDS011;66299;47.514;19.218;2023-05-07T01:41:39;30.23;;;19.33;;
68188;SDS011;66299;47.514;19.218;2023-05-07T01:44:12;31.58;;;20.35;;
68188;SDS011;66299;47.514;19.218;2023-05-07T01:46:44;31.42;;;20.25;;
68188;SDS011;66299;47.514;19.218;2023-05-07T01:49:13;29.63;;;20.08;;
68188;SDS011;66299;47.514;19.218;2023-05-07T01:51:42;28.17;;;19.02;;
68188;SDS011;66299;47.514;19.218;2023-05-07T01:54:14;30.15;;;19.70;;
68188;SDS011;66299;47.514;19.218;2023-05-07T01:56:55;31.88;;;20.10;;
68188;SDS011;66299;47.514;19.218;2023-05-07T01:59:26;31.52;;;20.17;;
68188;SDS011;66299;47.514;19.218;2023-05-07T02:01:58;28.83;;;20.13;;
68188;SDS011;66299;47.514;19.218;2023-05-07T02:04:27;35.35;;;21.50;;
68188;SDS011;66299;47.514;19.218;2023-05-07T02:07:01;31.77;;;21.40;;
68188;SDS011;66299;47.514;19.218;2023-05-07T02:09:33;33.17;;;22.25;;
68188;SDS011;66299;47.514;19.218;2023-05-07T02:12:04;30.08;;;20.75;;
68188;SDS011;66299;47.514;19.218;2023-05-07T02:14:39;28.63;;;20.20;;
68188;SDS011;66299;47.514;19.218;2023-05-07T02:17:07;29.77;;;20.83;;
68188;SDS011;66299;47.514;19.218;2023-05-07T02:19:37;30.65;;;20.95;;
68188;SDS011;66299;47.514;19.218;2023-05-07T02:22:09;33.42;;;21.80;;
68188;SDS011;66299;47.514;19.218;2023-05-07T02:24:41;34.78;;;22.10;;
68188;SDS011;66299;47.514;19.218;2023-05-07T02:27:14;37.35;;;22.95;;
68188;SDS011;66299;47.514;19.218;2023-05-07T02:29:45;37.38;;;24.88;;
68188;SDS011;66299;47.514;19.218;2023-05-07T02:32:15;43.78;;;27.77;;
68188;SDS011;66299;47.514;19.218;2023-05-07T02:34:46;42.03;;;28.55;;
68188;SDS011;66299;47.514;19.218;2023-05-07T02:37:19;53.65;;;35.40;;
68188;SDS011;66299;47.514;19.218;2023-05-07T02:39:53;51.63;;;34.45;;
68188;SDS011;66299;47.514;19.218;2023-05-07T02:42:28;49.88;;;32.70;;
68188;SDS011;66299;47.514;19.218;2023-05-07T02:45:01;50.42;;;33.58;;
68188;SDS011;66299;47.514;19.218;2023-05-07T02:47:30;51.15;;;32.78;;
68188;SDS011;66299;47.514;19.218;2023-05-07T02:50:02;43.47;;;30.00;;
68188;SDS011;66299;47.514;19.218;2023-05-07T02:52:36;44.70;;;30.30;;
68188;SDS011;66299;47.514;19.218;2023-05-07T02:55:08;47.47;;;33.13;;
68188;SDS011;66299;47.514;19.218;2023-05-07T02:57:40;48.13;;;31.08;;
68188;SDS011;66299;47.514;19.218;2023-05-07T03:00:12;51.22;;;35.50;;
68188;SDS011;66299;47.514;19.218;2023-05-07T03:02:43;51.28;;;34.90;;
68188;SDS011;66299;47.514;19.218;2023-05-07T03:05:12;49.88;;;34.78;;
68188;SDS011;66299;47.514;19.218;2023-05-07T03:07:41;53.78;;;36.95;;
68188;SDS011;66299;47.514;19.218;2023-05-07T03:10:17;54.00;;;37.22;;
68188;SDS011;66299;47.514;19.218;2023-05-07T03:12:46;55.60;;;37.25;;
68188;SDS011;66299;47.514;19.218;2023-05-07T03:15:19;55.45;;;37.35;;
68188;SDS011;66299;47.514;19.218;2023-05-07T03:17:50;50.05;;;33.08;;
68188;SDS011;66299;47.514;19.218;2023-05-07T03:20:22;48.90;;;32.30;;
68188;SDS011;66299;47.514;19.218;2023-05-07T03:22:58;53.72;;;34.88;;
68188;SDS011;66299;47.514;19.218;2023-05-07T03:25:30;53.28;;;36.08;;
68188;SDS011;66299;47.514;19.218;2023-05-07T03:28:02;50.08;;;34.63;;
68188;SDS011;66299;47.514;19.218;2023-05-07T03:30:35;51.20;;;34.55;;
68188;SDS011;66299;47.514;19.218;2023-05-07T03:33:05;49.63;;;33.28;;
68188;SDS011;66299;47.514;19.218;2023-05-07T03:35:35;52.75;;;34.60;;
68188;SDS011;66299;47.514;19.218;2023-05-07T03:38:09;53.60;;;35.90;;
68188;SDS011;66299;47.514;19.218;2023-05-07T03:40:43;50.92;;;34.80;;
68188;SDS011;66299;47.514;19.218;2023-05-07T03:43:24;48.13;;;33.90;;
68188;SDS011;66299;47.514;19.218;2023-05-07T03:45:56;47.80;;;32.75;;
68188;SDS011;66299;47.514;19.218;2023-05-07T03:48:32;45.38;;;30.95;;
68188;SDS011;66299;47.514;19.218;2023-05-07T03:51:04;48.67;;;31.85;;
68188;SDS011;66299;47.514;19.218;2023-05-07T03:53:37;55.22;;;32.13;;
68188;SDS011;66299;47.514;19.218;2023-05-07T03:56:11;49.88;;;31.38;;
68188;SDS011;66299;47.514;19.218;2023-05-07T03:58:53;47.58;;;32.55;;
68188;SDS011;66299;47.514;19.218;2023-05-07T04:01:31;47.25;;;32.17;;
68188;SDS011;66299;47.514;19.218;2023-05-07T04:04:11;49.30;;;31.70;;
68188;SDS011;66299;47.514;19.218;2023-05-07T04:06:43;47.00;;;32.20;;
68188;SDS011;66299;47.514;19.218;2023-05-07T04:09:16;49.60;;;31.42;;
68188;SDS011;66299;47.514;19.218;2023-05-07T04:11:50;42.63;;;29.73;;
68188;SDS011;66299;47.514;19.218;2023-05-07T04:14:19;42.92;;;29.25;;
68188;SDS011;66299;47.514;19.218;2023-05-07T04:16:52;45.47;;;29.50;;
68188;SDS011;66299;47.514;19.218;2023-05-07T04:19:22;42.78;;;29.15;;
68188;SDS011;66299;47.514;19.218;2023-05-07T04:21:51;42.30;;;29.20;;
68188;SDS011;66299;47.514;19.218;2023-05-07T04:24:25;45.88;;;30.08;;
68188;SDS011;66299;47.514;19.218;2023-05-07T04:27:02;47.75;;;32.25;;
68188;SDS011;66299;47.514;19.218;2023-05-07T04:29:33;49.85;;;32.33;;
68188;SDS011;66299;47.514;19.218;2023-05-07T04:32:09;47.17;;;30.67;;
68188;SDS011;66299;47.514;19.218;2023-05-07T04:34:39;49.95;;;32.28;;
68188;SDS011;66299;47.514;19.218;2023-05-07T04:37:13;50.05;;;30.92;;
68188;SDS011;66299;47.514;19.218;2023-05-07T04:39:46;45.83;;;31.20;;
68188;SDS011;66299;47.514;19.218;2023-05-07T04:42:17;39.28;;;26.52;;
68188;SDS011;66299;47.514;19.218;2023-05-07T04:44:47;39.70;;;27.00;;
68188;SDS011;66299;47.514;19.218;2023-05-07T04:47:20;35.60;;;24.65;;
68188;SDS011;66299;47.514;19.218;2023-05-07T04:49:50;38.35;;;25.50;;
68188;SDS011;66299;47.514;19.218;2023-05-07T04:52:20;37.58;;;24.27;;
68188;SDS011;66299;47.514;19.218;2023-05-07T04:54:53;37.92;;;25.73;;
68188;SDS011;66299;47.514;19.218;2023-05-07T04:57:25;41.53;;;25.80;;
68188;SDS011;66299;47.514;19.218;2023-05-07T04:59:56;36.83;;;25.15;;
68188;SDS011;66299;47.514;19.218;2023-05-07T05:02:26;34.97;;;24.33;;
68188;SDS011;66299;47.514;19.218;2023-05-07T05:04:57;36.65;;;24.35;;
68188;SDS011;66299;47.514;19.218;2023-05-07T05:10:00;39.35;;;26.05;;
68188;SDS011;66299;47.514;19.218;2023-05-07T05:12:35;38.47;;;26.63;;
68188;SDS011;66299;47.514;19.218;2023-05-07T05:15:07;42.40;;;26.75;;
68188;SDS011;66299;47.514;19.218;2023-05-07T05:17:41;43.08;;;27.95;;
68188;SDS011;66299;47.514;19.218;2023-05-07T05:20:13;42.90;;;30.67;;
68188;SDS011;66299;47.514;19.218;2023-05-07T05:22:48;44.30;;;29.00;;
68188;SDS011;66299;47.514;19.218;2023-05-07T05:25:22;43.55;;;29.67;;
68188;SDS011;66299;47.514;19.218;2023-05-07T05:27:59;41.93;;;30.00;;
68188;SDS011;66299;47.514;19.218;2023-05-07T05:30:31;40.72;;;27.33;;
68188;SDS011;66299;47.514;19.218;2023-05-07T05:33:04;40.72;;;26.60;;
68188;SDS011;66299;47.514;19.218;2023-05-07T05:35:35;38.80;;;25.60;;
68188;SDS011;66299;47.514;19.218;2023-05-07T05:38:04;38.95;;;26.42;;
68188;SDS011;66299;47.514;19.218;2023-05-07T05:40:33;36.35;;;24.75;;
68188;SDS011;66299;47.514;19.218;2023-05-07T05:43:06;34.30;;;23.77;;
68188;SDS011;66299;47.514;19.218;2023-05-07T05:45:34;35.95;;;22.08;;
68188;SDS011;66299;47.514;19.218;2023-05-07T05:48:09;32.63;;;21.83;;
68188;SDS011;66299;47.514;19.218;2023-05-07T05:50:45;30.50;;;21.20;;
68188;SDS011;66299;47.514;19.218;2023-05-07T05:53:15;32.13;;;19.95;;
68188;SDS011;66299;47.514;19.218;2023-05-07T05:55:47;27.80;;;19.35;;
68188;SDS011;66299;47.514;19.218;2023-05-07T05:58:20;29.75;;;19.23;;
68188;SDS011;66299;47.514;19.218;2023-05-07T06:00:49;27.83;;;19.02;;
68188;SDS011;66299;47.514;19.218;2023-05-07T06:03:21;26.13;;;18.27;;
68188;SDS011;66299;47.514;19.218;2023-05-07T06:05:53;24.02;;;16.58;;
68188;SDS011;66299;47.514;19.218;2023-05-07T06:08:30;24.45;;;16.13;;
68188;SDS011;66299;47.514;19.218;2023-05-07T06:11:03;24.10;;;15.63;;
68188;SDS011;66299;47.514;19.218;2023-05-07T06:13:37;27.60;;;16.60;;
68188;SDS011;66299;47.514;19.218;2023-05-07T06:16:14;22.30;;;15.13;;
68188;SDS011;66299;47.514;19.218;2023-05-07T06:18:44;23.35;;;13.43;;
68188;SDS011;66299;47.514;19.218;2023-05-07T06:21:17;19.17;;;11.93;;
68188;SDS011;66299;47.514;19.218;2023-05-07T06:23:46;19.10;;;12.00;;
68188;SDS011;66299;47.514;19.218;2023-05-07T06:26:20;23.10;;;13.10;;
68188;SDS011;66299;47.514;19.218;2023-05-07T06:28:58;22.08;;;12.23;;
68188;SDS011;66299;47.514;19.218;2023-05-07T06:31:29;17.02;;;10.63;;
68188;SDS011;66299;47.514;19.218;2023-05-07T06:34:03;16.70;;;10.68;;
68188;SDS011;66299;47.514;19.218;2023-05-07T06:36:37;19.10;;;11.18;;
68188;SDS011;66299;47.514;19.218;2023-05-07T06:39:09;17.48;;;9.85;;
68188;SDS011;66299;47.514;19.218;2023-05-07T06:41:40;17.92;;;9.48;;
68188;SDS011;66299;47.514;19.218;2023-05-07T06:44:17;15.80;;;9.45;;
68188;SDS011;66299;47.514;19.218;2023-05-07T06:46:50;18.73;;;9.70;;
68188;SDS011;66299;47.514;19.218;2023-05-07T06:49:20;17.00;;;9.60;;
68188;SDS011;66299;47.514;19.218;2023-05-07T06:51:52;15.30;;;8.57;;
68188;SDS011;66299;47.514;19.218;2023-05-07T06:54:27;15.07;;;8.02;;
68188;SDS011;66299;47.514;19.218;2023-05-07T06:56:57;14.32;;;8.10;;
68188;SDS011;66299;47.514;19.218;2023-05-07T06:59:31;15.13;;;8.95;;
68188;SDS011;66299;47.514;19.218;2023-05-07T07:02:01;15.57;;;8.50;;
68188;SDS011;66299;47.514;19.218;2023-05-07T07:04:35;13.70;;;7.47;;
68188;SDS011;66299;47.514;19.218;2023-05-07T07:07:08;12.85;;;7.10;;
68188;SDS011;66299;47.514;19.218;2023-05-07T07:09:38;13.20;;;7.00;;
68188;SDS011;66299;47.514;19.218;2023-05-07T07:12:08;12.07;;;6.90;;
68188;SDS011;66299;47.514;19.218;2023-05-07T07:14:39;12.80;;;6.20;;
68188;SDS011;66299;47.514;19.218;2023-05-07T07:17:15;10.43;;;5.63;;
68188;SDS011;66299;47.514;19.218;2023-05-07T07:19:44;12.52;;;5.30;;
68188;SDS011;66299;47.514;19.218;2023-05-07T07:22:16;10.88;;;5.00;;
68188;SDS011;66299;47.514;19.218;2023-05-07T07:24:47;9.82;;;4.80;;
68188;SDS011;66299;47.514;19.218;2023-05-07T07:27:17;10.18;;;4.70;;
68188;SDS011;66299;47.514;19.218;2023-05-07T07:30:02;10.70;;;4.90;;
68188;SDS011;66299;47.514;19.218;2023-05-07T07:32:36;11.50;;;5.47;;
68188;SDS011;66299;47.514;19.218;2023-05-07T07:35:08;15.60;;;5.30;;
68188;SDS011;66299;47.514;19.218;2023-05-07T07:37:40;12.35;;;5.80;;
68188;SDS011;66299;47.514;19.218;2023-05-07T07:40:21;11.45;;;5.60;;
68188;SDS011;66299;47.514;19.218;2023-05-07T07:42:53;12.48;;;5.10;;
68188;SDS011;66299;47.514;19.218;2023-05-07T07:45:25;10.95;;;4.47;;
68188;SDS011;66299;47.514;19.218;2023-05-07T07:47:56;9.13;;;4.47;;
68188;SDS011;66299;47.514;19.218;2023-05-07T07:50:28;12.20;;;4.60;;
68188;SDS011;66299;47.514;19.218;2023-05-07T07:53:12;9.18;;;4.32;;
68188;SDS011;66299;47.514;19.218;2023-05-07T07:55:44;11.88;;;4.40;;
68188;SDS011;66299;47.514;19.218;2023-05-07T07:58:17;8.30;;;3.83;;
68188;SDS011;66299;47.514;19.218;2023-05-07T08:00:51;9.93;;;4.13;;
68188;SDS011;66299;47.514;19.218;2023-05-07T08:03:24;9.07;;;4.00;;
68188;SDS011;66299;47.514;19.218;2023-05-07T08:06:02;8.50;;;4.10;;
68188;SDS011;66299;47.514;19.218;2023-05-07T08:08:40;9.10;;;3.85;;
68188;SDS011;66299;47.514;19.218;2023-05-07T08:11:11;8.73;;;3.10;;
68188;SDS011;66299;47.514;19.218;2023-05-07T08:13:40;8.90;;;3.90;;
68188;SDS011;66299;47.514;19.218;2023-05-07T08:16:20;8.43;;;3.00;;
68188;SDS011;66299;47.514;19.218;2023-05-07T08:18:50;9.07;;;3.15;;
68188;SDS011;66299;47.514;19.218;2023-05-07T08:21:25;7.15;;;2.90;;
68188;SDS011;66299;47.514;19.218;2023-05-07T08:24:00;7.30;;;2.75;;
68188;SDS011;66299;47.514;19.218;2023-05-07T08:26:34;7.40;;;2.60;;
68188;SDS011;66299;47.514;19.218;2023-05-07T08:29:08;6.90;;;2.60;;
68188;SDS011;66299;47.514;19.218;2023-05-07T08:31:43;8.63;;;3.03;;
68188;SDS011;66299;47.514;19.218;2023-05-07T08:34:16;7.70;;;3.10;;
68188;SDS011;66299;47.514;19.218;2023-05-07T08:36:51;7.97;;;2.92;;
68188;SDS011;66299;47.514;19.218;2023-05-07T08:39:20;7.55;;;3.03;;
68188;SDS011;66299;47.514;19.218;2023-05-07T08:42:00;6.70;;;2.65;;
68188;SDS011;66299;47.514;19.218;2023-05-07T08:44:35;8.10;;;2.90;;
68188;SDS011;66299;47.514;19.218;2023-05-07T08:47:10;8.38;;;2.83;;
68188;SDS011;66299;47.514;19.218;2023-05-07T08:49:41;7.97;;;3.13;;
68188;SDS011;66299;47.514;19.218;2023-05-07T08:52:13;8.63;;;3.13;;
68188;SDS011;66299;47.514;19.218;2023-05-07T08:54:43;7.97;;;3.30;;
68188;SDS011;66299;47.514;19.218;2023-05-07T08:57:23;9.63;;;3.15;;
68188;SDS011;66299;47.514;19.218;2023-05-07T08:59:55;8.25;;;2.83;;
68188;SDS011;66299;47.514;19.218;2023-05-07T09:02:28;8.70;;;3.90;;
68188;SDS011;66299;47.514;19.218;2023-05-07T09:04:59;8.93;;;3.58;;
68188;SDS011;66299;47.514;19.218;2023-05-07T09:07:27;9.85;;;4.07;;
68188;SDS011;66299;47.514;19.218;2023-05-07T09:10:02;9.60;;;3.90;;
68188;SDS011;66299;47.514;19.218;2023-05-07T09:12:31;10.23;;;4.10;;
68188;SDS011;66299;47.514;19.218;2023-05-07T09:17:35;8.75;;;3.63;;
68188;SDS011;66299;47.514;19.218;2023-05-07T09:20:07;9.05;;;3.70;;
68188;SDS011;66299;47.514;19.218;2023-05-07T09:22:42;8.93;;;3.65;;
68188;SDS011;66299;47.514;19.218;2023-05-07T09:27:55;9.20;;;3.70;;
68188;SDS011;66299;47.514;19.218;2023-05-07T09:30:27;8.60;;;3.80;;
68188;SDS011;66299;47.514;19.218;2023-05-07T09:33:05;7.95;;;3.20;;
68188;SDS011;66299;47.514;19.218;2023-05-07T09:35:38;8.50;;;3.20;;
68188;SDS011;66299;47.514;19.218;2023-05-07T09:38:07;8.43;;;3.22;;
68188;SDS011;66299;47.514;19.218;2023-05-07T09:40:41;8.38;;;3.30;;
68188;SDS011;66299;47.514;19.218;2023-05-07T09:43:16;8.75;;;3.30;;
68188;SDS011;66299;47.514;19.218;2023-05-07T09:45:56;9.10;;;3.08;;
68188;SDS011;66299;47.514;19.218;2023-05-07T09:48:33;8.00;;;2.92;;
68188;SDS011;66299;47.514;19.218;2023-05-07T09:51:13;9.18;;;3.00;;
68188;SDS011;66299;47.514;19.218;2023-05-07T09:53:56;7.60;;;2.65;;
68188;SDS011;66299;47.514;19.218;2023-05-07T09:56:33;7.05;;;2.67;;
68188;SDS011;66299;47.514;19.218;2023-05-07T10:01:50;8.98;;;2.75;;
68188;SDS011;66299;47.514;19.218;2023-05-07T10:04:26;8.38;;;2.72;;
68188;SDS011;66299;47.514;19.218;2023-05-07T10:06:57;7.00;;;2.60;;
68188;SDS011;66299;47.514;19.218;2023-05-07T10:09:28;6.32;;;2.45;;
68188;SDS011;66299;47.514;19.218;2023-05-07T10:11:59;8.50;;;2.70;;
68188;SDS011;66299;47.514;19.218;2023-05-07T10:14:36;9.30;;;2.80;;
68188;SDS011;66299;47.514;19.218;2023-05-07T10:17:09;8.10;;;2.60;;
68188;SDS011;66299;47.514;19.218;2023-05-07T10:19:43;8.93;;;2.90;;
68188;SDS011;66299;47.514;19.218;2023-05-07T10:22:18;7.32;;;2.80;;
68188;SDS011;66299;47.514;19.218;2023-05-07T10:24:48;7.53;;;2.92;;
68188;SDS011;66299;47.514;19.218;2023-05-07T10:29:57;9.00;;;2.80;;
68188;SDS011;66299;47.514;19.218;2023-05-07T10:32:49;10.07;;;3.13;;
68188;SDS011;66299;47.514;19.218;2023-05-07T10:35:24;8.57;;;2.90;;
68188;SDS011;66299;47.514;19.218;2023-05-07T10:37:58;8.35;;;2.88;;
68188;SDS011;66299;47.514;19.218;2023-05-07T10:40:28;7.72;;;3.10;;
68188;SDS011;66299;47.514;19.218;2023-05-07T10:42:58;7.68;;;2.83;;
68188;SDS011;66299;47.514;19.218;2023-05-07T10:45:29;10.85;;;2.80;;
68188;SDS011;66299;47.514;19.218;2023-05-07T10:48:16;6.90;;;2.58;;
68188;SDS011;66299;47.514;19.218;2023-05-07T10:50:50;9.95;;;3.10;;
68188;SDS011;66299;47.514;19.218;2023-05-07T10:53:49;6.88;;;2.63;;
68188;SDS011;66299;47.514;19.218;2023-05-07T10:56:52;7.40;;;2.65;;
68188;SDS011;66299;47.514;19.218;2023-05-07T10:59:34;8.88;;;2.60;;
68188;SDS011;66299;47.514;19.218;2023-05-07T11:02:09;7.40;;;3.10;;
68188;SDS011;66299;47.514;19.218;2023-05-07T11:04:41;7.90;;;3.20;;
68188;SDS011;66299;47.514;19.218;2023-05-07T11:10:08;8.88;;;3.22;;
68188;SDS011;66299;47.514;19.218;2023-05-07T11:12:56;10.95;;;3.20;;
68188;SDS011;66299;47.514;19.218;2023-05-07T11:15:36;9.15;;;3.30;;
68188;SDS011;66299;47.514;19.218;2023-05-07T11:18:15;8.88;;;3.53;;
68188;SDS011;66299;47.514;19.218;2023-05-07T11:20:58;10.75;;;3.60;;
68188;SDS011;66299;47.514;19.218;2023-05-07T11:26:44;8.93;;;3.33;;
68188;SDS011;66299;47.514;19.218;2023-05-07T11:29:16;9.48;;;3.80;;
68188;SDS011;66299;47.514;19.218;2023-05-07T11:31:54;9.10;;;3.78;;
68188;SDS011;66299;47.514;19.218;2023-05-07T11:34:25;9.45;;;3.97;;
68188;SDS011;66299;47.514;19.218;2023-05-07T11:36:58;8.20;;;3.67;;
68188;SDS011;66299;47.514;19.218;2023-05-07T11:39:36;8.60;;;3.60;;
68188;SDS011;66299;47.514;19.218;2023-05-07T11:42:22;7.50;;;2.90;;
68188;SDS011;66299;47.514;19.218;2023-05-07T11:44:55;7.80;;;3.30;;
68188;SDS011;66299;47.514;19.218;2023-05-07T11:50:03;9.07;;;3.40;;
68188;SDS011;66299;47.514;19.218;2023-05-07T11:52:39;9.20;;;3.65;;
68188;SDS011;66299;47.514;19.218;2023-05-07T11:55:23;9.48;;;3.55;;
68188;SDS011;66299;47.514;19.218;2023-05-07T11:58:08;8.90;;;3.50;;
68188;SDS011;66299;47.514;19.218;2023-05-07T12:00:49;7.65;;;3.05;;
68188;SDS011;66299;47.514;19.218;2023-05-07T12:03:20;7.43;;;3.05;;
68188;SDS011;66299;47.514;19.218;2023-05-07T12:05:51;9.38;;;3.15;;
68188;SDS011;66299;47.514;19.218;2023-05-07T12:08:22;6.68;;;2.53;;
68188;SDS011;66299;47.514;19.218;2023-05-07T12:10:56;7.47;;;2.80;;
68188;SDS011;66299;47.514;19.218;2023-05-07T12:13:30;7.75;;;2.58;;
68188;SDS011;66299;47.514;19.218;2023-05-07T12:16:02;7.97;;;2.75;;
68188;SDS011;66299;47.514;19.218;2023-05-07T12:18:39;7.90;;;2.65;;
68188;SDS011;66299;47.514;19.218;2023-05-07T12:21:10;7.82;;;3.08;;
68188;SDS011;66299;47.514;19.218;2023-05-07T12:23:44;7.47;;;2.78;;
68188;SDS011;66299;47.514;19.218;2023-05-07T12:26:15;9.60;;;3.30;;
68188;SDS011;66299;47.514;19.218;2023-05-07T12:28:48;8.45;;;3.40;;
68188;SDS011;66299;47.514;19.218;2023-05-07T12:31:28;8.15;;;3.38;;
68188;SDS011;66299;47.514;19.218;2023-05-07T12:34:00;8.27;;;3.80;;
68188;SDS011;66299;47.514;19.218;2023-05-07T12:36:39;11.05;;;3.90;;
68188;SDS011;66299;47.514;19.218;2023-05-07T12:39:09;10.13;;;3.90;;
68188;SDS011;66299;47.514;19.218;2023-05-07T12:41:55;9.68;;;3.70;;
68188;SDS011;66299;47.514;19.218;2023-05-07T12:44:31;11.05;;;3.80;;
68188;SDS011;66299;47.514;19.218;2023-05-07T12:47:01;9.48;;;3.75;;
68188;SDS011;66299;47.514;19.218;2023-05-07T12:49:37;10.05;;;3.60;;
68188;SDS011;66299;47.514;19.218;2023-05-07T12:52:13;10.70;;;3.83;;
68188;SDS011;66299;47.514;19.218;2023-05-07T12:54:47;11.43;;;3.65;;
68188;SDS011;66299;47.514;19.218;2023-05-07T12:57:20;9.07;;;3.70;;
68188;SDS011;66299;47.514;19.218;2023-05-07T12:59:49;8.40;;;3.95;;
68188;SDS011;66299;47.514;19.218;2023-05-07T13:02:18;8.75;;;3.70;;
68188;SDS011;66299;47.514;19.218;2023-05-07T13:05:03;8.68;;;3.80;;
68188;SDS011;66299;47.514;19.218;2023-05-07T13:07:32;9.27;;;3.80;;
68188;SDS011;66299;47.514;19.218;2023-05-07T13:10:01;9.25;;;3.60;;
68188;SDS011;66299;47.514;19.218;2023-05-07T13:12:29;8.50;;;3.53;;
68188;SDS011;66299;47.514;19.218;2023-05-07T13:15:02;8.02;;;3.15;;
68188;SDS011;66299;47.514;19.218;2023-05-07T13:17:31;8.52;;;3.50;;
68188;SDS011;66299;47.514;19.218;2023-05-07T13:20:00;11.10;;;3.45;;
68188;SDS011;66299;47.514;19.218;2023-05-07T13:22:32;9.93;;;3.40;;
68188;SDS011;66299;47.514;19.218;2023-05-07T13:25:01;7.88;;;3.08;;
68188;SDS011;66299;47.514;19.218;2023-05-07T13:27:29;8.40;;;3.33;;
68188;SDS011;66299;47.514;19.218;2023-05-07T13:29:59;9.07;;;3.33;;
68188;SDS011;66299;47.514;19.218;2023-05-07T13:32:34;8.07;;;3.30;;
68188;SDS011;66299;47.514;19.218;2023-05-07T13:35:07;8.20;;;3.22;;
68188;SDS011;66299;47.514;19.218;2023-05-07T13:37:37;7.22;;;3.10;;
68188;SDS011;66299;47.514;19.218;2023-05-07T13:40:07;9.95;;;3.55;;
68188;SDS011;66299;47.514;19.218;2023-05-07T13:42:37;11.05;;;3.50;;
68188;SDS011;66299;47.514;19.218;2023-05-07T13:45:15;8.00;;;3.17;;
68188;SDS011;66299;47.514;19.218;2023-05-07T13:47:47;8.00;;;3.25;;
68188;SDS011;66299;47.514;19.218;2023-05-07T13:50:19;8.20;;;3.13;;
68188;SDS011;66299;47.514;19.218;2023-05-07T13:52:47;8.63;;;3.15;;
68188;SDS011;66299;47.514;19.218;2023-05-07T13:55:18;11.00;;;3.20;;
68188;SDS011;66299;47.514;19.218;2023-05-07T13:57:54;8.45;;;3.28;;
68188;SDS011;66299;47.514;19.218;2023-05-07T14:00:28;8.13;;;3.25;;
68188;SDS011;66299;47.514;19.218;2023-05-07T14:02:59;9.50;;;3.35;;
68188;SDS011;66299;47.514;19.218;2023-05-07T14:05:30;8.40;;;3.33;;
68188;SDS011;66299;47.514;19.218;2023-05-07T14:07:59;8.43;;;3.30;;
68188;SDS011;66299;47.514;19.218;2023-05-07T14:10:30;7.78;;;3.30;;
68188;SDS011;66299;47.514;19.218;2023-05-07T14:13:02;7.60;;;3.40;;
68188;SDS011;66299;47.514;19.218;2023-05-07T14:15:40;8.55;;;3.30;;
68188;SDS011;66299;47.514;19.218;2023-05-07T14:18:14;9.43;;;3.50;;
68188;SDS011;66299;47.514;19.218;2023-05-07T14:20:47;13.45;;;3.60;;
68188;SDS011;66299;47.514;19.218;2023-05-07T14:23:22;8.80;;;3.50;;
68188;SDS011;66299;47.514;19.218;2023-05-07T14:25:56;9.53;;;3.80;;
68188;SDS011;66299;47.514;19.218;2023-05-07T14:28:29;10.10;;;3.72;;
68188;SDS011;66299;47.514;19.218;2023-05-07T14:30:59;9.02;;;3.88;;
68188;SDS011;66299;47.514;19.218;2023-05-07T14:35:58;12.30;;;3.88;;
68188;SDS011;66299;47.514;19.218;2023-05-07T14:38:30;10.85;;;3.90;;
68188;SDS011;66299;47.514;19.218;2023-05-07T14:41:00;7.90;;;3.47;;
68188;SDS011;66299;47.514;19.218;2023-05-07T14:43:29;8.23;;;3.38;;
68188;SDS011;66299;47.514;19.218;2023-05-07T14:45:58;7.50;;;3.00;;
68188;SDS011;66299;47.514;19.218;2023-05-07T14:48:28;8.80;;;3.40;;
68188;SDS011;66299;47.514;19.218;2023-05-07T14:50:57;8.90;;;3.25;;
68188;SDS011;66299;47.514;19.218;2023-05-07T14:53:25;7.63;;;3.20;;
68188;SDS011;66299;47.514;19.218;2023-05-07T14:55:59;8.10;;;3.03;;
68188;SDS011;66299;47.514;19.218;2023-05-07T14:58:27;9.00;;;3.13;;
68188;SDS011;66299;47.514;19.218;2023-05-07T15:00:56;7.82;;;3.10;;
68188;SDS011;66299;47.514;19.218;2023-05-07T15:03:26;9.57;;;3.50;;
68188;SDS011;66299;47.514;19.218;2023-05-07T15:05:55;8.25;;;3.38;;
68188;SDS011;66299;47.514;19.218;2023-05-07T15:08:24;8.25;;;3.33;;
68188;SDS011;66299;47.514;19.218;2023-05-07T15:10:53;8.00;;;3.13;;
68188;SDS011;66299;47.514;19.218;2023-05-07T15:13:22;9.90;;;3.58;;
68188;SDS011;66299;47.514;19.218;2023-05-07T15:15:59;9.18;;;3.25;;
68188;SDS011;66299;47.514;19.218;2023-05-07T15:18:31;11.05;;;3.50;;
68188;SDS011;66299;47.514;19.218;2023-05-07T15:20:59;7.88;;;3.35;;
68188;SDS011;66299;47.514;19.218;2023-05-07T15:23:28;8.82;;;3.50;;